map of ATH home
ATH - Airport
Location
City:  Athens, Attikí (Attica), Greece
Near (Alt.):Spata
Name:Eleftherios Venizelos International Airport
ICAO:LGAV
IATA:ATH

Details
Type:Airport (Aerodrome, Airfield)
Use:Public/Civil, International (customs port of entry)
Latitude:37°56'11"N (37.936358)
Longitude:23°56'40"E (23.944467)
Datum:WGS 1984
Elevation:308 ft (94 m)
Variation:4.43°E (WMM2015 magnetic declination)
0.10° annual change
Runways:2
Longest:13123 × 148 ft (4000 × 45 m), paved

Time
Time Zone:UTC+2 (DST+3)
Local Time:

Weather
METAR:LGAV 260850Z VRB03KT 9999 FEW030 25/09 Q1011 NOSIG
TAF:LGAV 260500Z 2606/2706 VRB05KT 9999 FEW020 SCT070 PROB40
TEMPO 2606/2616 5000 RA SCT020 BKN070 PROB30
TEMPO 2609/2615 4000 TSRA FEW018CB SCT020 BKN070
BECMG 2618/2620 02010KT

Related Locations
Nearby:
Farthest:RMT: 11359 mi / 18280 km
Rimatara [Rimatara Airport], PF

Find:

   beyond  
but within

Other Information
Maps:
NOTAMs:
Links:
Sources:

  
flag of Greece   

Sectional Chart

Flight Planning
at skyvector.com

Satellite Image

Google Maps Satellite view

 

Copyright © 2004-2017 Karl L. Swartz. All rights reserved.
The Great Circle Mapper name and logo are trademarks of the Great Circle Mapper.
All other trademarks mentioned herein belong to their respective owners.
Please see credits for attibutions and further copyright information.

  Follow gcmap on Facebook Follow gcmap on Twitter Follow gcmap on Google+ GCmap on LinkedIn

hCard Microformat

Geo Microformat